createdAt,value
2019-03-23T00:00:04.039Z,0.00
2019-03-23T00:01:04.033Z,0.00
2019-03-23T00:02:04.031Z,0.00
2019-03-23T00:03:04.004Z,0.00
2019-03-23T00:04:04.013Z,0.00
2019-03-23T00:05:04.012Z,0.00
2019-03-23T00:06:03.966Z,0.00
2019-03-23T00:07:03.975Z,0.00
2019-03-23T00:08:03.945Z,0.00
2019-03-23T00:09:03.950Z,0.00
2019-03-23T00:10:03.956Z,0.00
2019-03-23T00:11:03.930Z,0.00
2019-03-23T00:12:03.944Z,0.00
2019-03-23T00:13:03.920Z,0.00
2019-03-23T00:14:03.877Z,0.00
2019-03-23T00:15:03.890Z,0.00
2019-03-23T00:16:03.852Z,0.00
2019-03-23T00:17:03.865Z,0.00
2019-03-23T00:18:03.849Z,0.00
2019-03-23T00:19:03.832Z,0.00
2019-03-23T00:20:03.809Z,0.00
2019-03-23T00:21:03.801Z,0.00
2019-03-23T00:22:03.827Z,0.00
2019-03-23T00:23:03.808Z,0.00
2019-03-23T00:24:03.761Z,0.00
2019-03-23T00:25:03.786Z,0.00
2019-03-23T00:26:03.740Z,0.00
2019-03-23T00:27:03.777Z,0.00
2019-03-23T00:28:03.719Z,0.00
2019-03-23T00:29:03.721Z,0.00
2019-03-23T00:30:03.699Z,0.00
2019-03-23T00:31:03.718Z,0.00
2019-03-23T00:32:03.707Z,0.00
2019-03-23T00:33:03.667Z,0.00
2019-03-23T00:34:03.650Z,0.00
2019-03-23T00:35:03.637Z,0.00
2019-03-23T00:36:03.650Z,0.00
2019-03-23T00:37:03.622Z,0.00
2019-03-23T00:38:03.605Z,0.00
2019-03-23T00:39:03.601Z,0.00
2019-03-23T00:40:03.606Z,0.00
2019-03-23T00:41:03.571Z,0.00
2019-03-23T00:42:03.564Z,0.00
2019-03-23T00:43:03.580Z,0.00
2019-03-23T00:44:03.541Z,0.00
2019-03-23T00:45:03.527Z,0.00
2019-03-23T00:46:03.548Z,0.00
2019-03-23T00:47:03.533Z,0.00
2019-03-23T00:48:03.546Z,0.00
2019-03-23T00:49:03.509Z,0.00
2019-03-23T00:50:03.470Z,0.00
2019-03-23T00:51:03.461Z,0.00
2019-03-23T00:52:03.472Z,0.00
2019-03-23T00:53:03.435Z,0.00
2019-03-23T00:54:03.454Z,0.00
2019-03-23T00:55:03.451Z,0.00
2019-03-23T00:56:03.403Z,0.00
2019-03-23T00:57:03.410Z,0.00
2019-03-23T00:58:03.428Z,0.00
2019-03-23T00:59:03.419Z,0.00
2019-03-23T01:00:03.364Z,0.00
2019-03-23T01:01:03.370Z,0.00
2019-03-23T01:02:03.336Z,0.00
2019-03-23T01:03:03.352Z,0.00
2019-03-23T01:04:03.337Z,0.00
2019-03-23T01:05:03.349Z,0.00
2019-03-23T01:06:03.318Z,0.00
2019-03-23T01:07:03.280Z,0.00
2019-03-23T01:08:03.273Z,0.00
2019-03-23T01:09:03.258Z,0.00
2019-03-23T01:10:03.268Z,0.00
2019-03-23T01:11:03.238Z,0.00
2019-03-23T01:12:03.259Z,0.00
2019-03-23T01:13:03.246Z,0.00
2019-03-23T01:14:03.251Z,0.00
2019-03-23T01:15:03.198Z,0.00
2019-03-23T01:16:03.201Z,0.00
2019-03-23T01:17:03.221Z,0.00
2019-03-23T01:18:03.213Z,0.00
2019-03-23T01:19:03.193Z,0.00
2019-03-23T01:20:03.168Z,0.00
2019-03-23T01:21:03.151Z,0.00
2019-03-23T01:22:03.118Z,0.00
2019-03-23T01:23:03.154Z,0.00
2019-03-23T01:24:03.091Z,0.00
2019-03-23T01:25:03.105Z,0.00
2019-03-23T01:26:03.192Z,0.00
2019-03-23T01:27:03.074Z,0.00
2019-03-23T01:28:03.045Z,0.00
2019-03-23T01:29:03.033Z,0.00
2019-03-23T01:30:03.028Z,0.00
2019-03-23T01:31:03.041Z,0.00
2019-03-23T01:32:02.999Z,0.00
2019-03-23T01:33:02.993Z,0.00
2019-03-23T01:34:02.983Z,0.00
2019-03-23T01:35:02.988Z,0.00
2019-03-23T01:36:02.954Z,0.00
2019-03-23T01:37:03.213Z,0.00
2019-03-23T01:38:02.936Z,0.00
2019-03-23T01:39:02.922Z,0.00
2019-03-23T01:40:02.909Z,0.00
2019-03-23T01:41:02.924Z,0.00
2019-03-23T01:42:02.911Z,0.00
2019-03-23T01:43:02.876Z,0.00
2019-03-23T01:44:02.880Z,0.00
2019-03-23T01:45:02.853Z,0.00
2019-03-23T01:46:02.841Z,0.00
2019-03-23T01:47:02.854Z,0.00
2019-03-23T01:48:02.819Z,0.00
2019-03-23T01:49:02.810Z,0.00
2019-03-23T01:50:02.800Z,0.00
2019-03-23T01:51:02.790Z,0.00
2019-03-23T01:52:02.799Z,0.00
2019-03-23T01:53:02.763Z,0.00
2019-03-23T01:54:02.776Z,0.00
2019-03-23T01:55:02.745Z,0.00
2019-03-23T01:56:02.734Z,0.00
2019-03-23T01:57:02.722Z,0.00
2019-03-23T01:58:02.736Z,0.00
2019-03-23T01:59:02.696Z,0.00
2019-03-23T02:00:02.686Z,0.00
2019-03-23T02:01:02.674Z,0.00
2019-03-23T02:02:02.663Z,0.00
2019-03-23T02:03:02.673Z,0.00
2019-03-23T02:04:02.642Z,0.00
2019-03-23T02:05:02.631Z,0.00
2019-03-23T02:06:02.678Z,0.00
2019-03-23T02:07:13.204Z,0.00
2019-03-23T02:08:03.600Z,0.00
2019-03-23T02:09:02.585Z,0.00
2019-03-23T02:10:02.573Z,0.00
2019-03-23T02:11:02.590Z,0.00
2019-03-23T02:12:02.557Z,0.00
2019-03-23T02:13:02.539Z,0.00
2019-03-23T02:14:02.525Z,0.00
2019-03-23T02:15:02.515Z,0.00
2019-03-23T02:16:02.529Z,0.00
2019-03-23T02:17:02.492Z,0.00
2019-03-23T02:18:02.481Z,0.00
2019-03-23T02:19:02.500Z,0.00
2019-03-23T02:20:02.464Z,0.00
2019-03-23T02:21:02.447Z,0.00
2019-03-23T02:22:02.445Z,0.00
2019-03-23T02:23:02.430Z,0.00
2019-03-23T02:24:02.436Z,0.00
2019-03-23T02:25:02.404Z,0.00
2019-03-23T02:26:02.390Z,0.00
2019-03-23T02:27:02.382Z,0.00
2019-03-23T02:28:02.368Z,0.00
2019-03-23T02:29:02.380Z,0.00
2019-03-23T02:30:02.354Z,0.00
2019-03-23T02:31:02.342Z,0.00
2019-03-23T02:32:02.330Z,0.00
2019-03-23T02:33:02.346Z,0.00
2019-03-23T02:34:02.316Z,0.00
2019-03-23T02:35:02.297Z,0.00
2019-03-23T02:36:02.285Z,0.00
2019-03-23T02:37:02.271Z,0.00
2019-03-23T02:38:02.281Z,0.00
2019-03-23T02:39:02.251Z,0.00
2019-03-23T02:40:02.240Z,0.00
2019-03-23T02:41:02.254Z,0.00
2019-03-23T02:42:02.244Z,0.00
2019-03-23T02:43:02.205Z,0.00
2019-03-23T02:44:02.191Z,0.00
2019-03-23T02:45:02.185Z,0.00
2019-03-23T02:46:02.172Z,0.00
2019-03-23T02:47:02.189Z,0.00
2019-03-23T02:48:02.151Z,0.00
2019-03-23T02:49:02.140Z,0.00
2019-03-23T02:50:02.130Z,0.00
2019-03-23T02:51:02.119Z,0.00
2019-03-23T02:52:02.130Z,0.00
2019-03-23T02:53:02.103Z,0.00
2019-03-23T02:54:02.083Z,0.00
2019-03-23T02:55:02.091Z,0.00
2019-03-23T02:56:02.062Z,0.00
2019-03-23T02:57:02.076Z,0.00
2019-03-23T02:58:02.037Z,0.00
2019-03-23T02:59:02.028Z,0.00
2019-03-23T03:00:02.013Z,0.00
2019-03-23T03:01:02.007Z,0.00
2019-03-23T03:02:02.014Z,0.00
2019-03-23T03:03:01.977Z,0.00
2019-03-23T03:04:01.980Z,0.00
2019-03-23T03:05:01.963Z,0.00
2019-03-23T03:06:01.951Z,0.00
2019-03-23T03:07:01.960Z,0.00
2019-03-23T03:08:01.951Z,0.00
2019-03-23T03:09:01.910Z,0.00
2019-03-23T03:10:01.909Z,0.00
2019-03-23T03:11:01.905Z,0.00
2019-03-23T03:12:01.892Z,0.00
2019-03-23T03:13:01.878Z,0.00
2019-03-23T03:14:01.900Z,0.00
2019-03-23T03:15:01.851Z,0.00
2019-03-23T03:16:01.836Z,0.00
2019-03-23T03:17:01.827Z,0.00
2019-03-23T03:18:01.813Z,0.00
2019-03-23T03:19:01.843Z,0.00
2019-03-23T03:20:01.788Z,0.00
2019-03-23T03:21:01.779Z,0.00
2019-03-23T03:22:01.769Z,0.00
2019-03-23T03:23:01.760Z,0.00
2019-03-23T03:24:01.767Z,0.00
2019-03-23T03:25:01.737Z,0.00
2019-03-23T03:26:01.724Z,0.00
2019-03-23T03:27:01.742Z,0.00
2019-03-23T03:28:01.701Z,0.00
2019-03-23T03:29:01.689Z,0.00
2019-03-23T03:30:01.711Z,0.00
2019-03-23T03:31:01.725Z,0.00
2019-03-23T03:32:01.658Z,0.00
2019-03-23T03:33:01.660Z,0.00
2019-03-23T03:34:01.649Z,0.00
2019-03-23T03:35:01.736Z,0.00
2019-03-23T03:36:01.608Z,0.00
2019-03-23T03:37:01.599Z,0.00
2019-03-23T03:38:01.587Z,0.00
2019-03-23T03:39:01.578Z,0.00
2019-03-23T03:40:01.590Z,0.00
2019-03-23T03:41:01.551Z,0.00
2019-03-23T03:42:01.541Z,0.00
2019-03-23T03:43:01.556Z,0.00
2019-03-23T03:44:01.549Z,0.00
2019-03-23T03:45:01.508Z,0.00
2019-03-23T03:46:01.499Z,0.00
2019-03-23T03:47:01.489Z,0.00
2019-03-23T03:48:01.481Z,0.00
2019-03-23T03:49:11.735Z,0.00
2019-03-23T03:50:02.451Z,0.00
2019-03-23T03:51:01.444Z,0.00
2019-03-23T03:52:01.435Z,0.00
2019-03-23T03:53:01.447Z,0.00
2019-03-23T03:54:01.411Z,0.00
2019-03-23T03:55:01.422Z,0.00
2019-03-23T03:56:01.385Z,0.00
2019-03-23T03:57:01.376Z,0.00
2019-03-23T03:58:01.396Z,0.00
2019-03-23T03:59:01.361Z,0.00
2019-03-23T04:00:01.337Z,0.00
2019-03-23T04:01:01.335Z,0.00
2019-03-23T04:02:01.320Z,0.00
2019-03-23T04:03:01.346Z,0.00
2019-03-23T04:04:01.297Z,0.00
2019-03-23T04:05:01.345Z,0.00
2019-03-23T04:06:01.270Z,0.00
2019-03-23T04:07:01.259Z,0.00
2019-03-23T04:08:10.896Z,0.00
2019-03-23T04:09:02.244Z,0.00
2019-03-23T04:10:01.244Z,0.00
2019-03-23T04:11:01.215Z,0.00
2019-03-23T04:12:01.209Z,0.00
2019-03-23T04:13:01.220Z,0.00
2019-03-23T04:14:01.223Z,0.00
2019-03-23T04:15:01.172Z,0.00
2019-03-23T04:16:01.166Z,0.00
2019-03-23T04:17:01.151Z,0.00
2019-03-23T04:18:01.140Z,0.00
2019-03-23T04:19:01.152Z,0.00
2019-03-23T04:20:01.115Z,0.00
2019-03-23T04:21:01.105Z,0.00
2019-03-23T04:22:01.100Z,0.00
2019-03-23T04:23:01.116Z,0.00
2019-03-23T04:24:01.076Z,0.00
2019-03-23T04:25:01.062Z,0.00
2019-03-23T04:26:01.056Z,0.00
2019-03-23T04:27:01.041Z,0.00
2019-03-23T04:28:01.052Z,0.00
2019-03-23T04:29:01.013Z,0.00
2019-03-23T04:30:01.001Z,0.00
2019-03-23T04:31:01.018Z,0.00
2019-03-23T04:32:00.982Z,0.00
2019-03-23T04:33:00.972Z,0.00
2019-03-23T04:34:00.963Z,0.00
2019-03-23T04:35:00.949Z,0.00
2019-03-23T04:36:00.981Z,0.00
2019-03-23T04:37:00.934Z,0.00
2019-03-23T04:38:00.920Z,0.00
2019-03-23T04:39:00.902Z,0.00
2019-03-23T04:40:00.895Z,0.00
2019-03-23T04:41:00.909Z,0.00
2019-03-23T04:42:00.867Z,0.00
2019-03-23T04:43:00.860Z,0.00
2019-03-23T04:44:00.849Z,0.00
2019-03-23T04:45:00.855Z,0.00
2019-03-23T04:46:00.821Z,4.00
2019-03-23T04:47:00.817Z,0.00
2019-03-23T04:48:00.818Z,0.00
2019-03-23T04:49:00.790Z,4.00
2019-03-23T04:50:00.783Z,0.00
2019-03-23T04:51:00.767Z,4.00
2019-03-23T04:52:00.754Z,4.00
2019-03-23T04:53:00.779Z,4.00
2019-03-23T04:54:00.737Z,4.00
2019-03-23T04:55:00.724Z,4.00
2019-03-23T04:56:00.711Z,8.00
2019-03-23T04:57:00.703Z,8.00
2019-03-23T04:58:00.714Z,8.00
2019-03-23T04:59:00.690Z,12.00
2019-03-23T05:00:00.666Z,16.00
2019-03-23T05:01:00.691Z,20.00
2019-03-23T05:02:00.647Z,20.00
2019-03-23T05:03:00.635Z,24.00
2019-03-23T05:04:00.624Z,32.00
2019-03-23T05:05:00.617Z,36.00
2019-03-23T05:06:00.640Z,40.00
2019-03-23T05:07:00.589Z,48.00
2019-03-23T05:08:00.579Z,56.00
2019-03-23T05:09:00.565Z,64.00
2019-03-23T05:10:00.558Z,72.00
2019-03-23T05:11:00.569Z,80.00
2019-03-23T05:12:00.541Z,92.00
2019-03-23T05:13:00.522Z,104.00
2019-03-23T05:14:00.512Z,116.00
2019-03-23T05:15:00.525Z,128.00
2019-03-23T05:16:00.494Z,140.00
2019-03-23T05:17:00.479Z,156.00
2019-03-23T05:18:00.492Z,164.00
2019-03-23T05:19:00.484Z,180.00
2019-03-23T05:20:00.442Z,192.00
2019-03-23T05:21:00.432Z,208.00
2019-03-23T05:22:00.420Z,224.00
2019-03-23T05:23:00.415Z,244.00
2019-03-23T05:24:00.433Z,268.00
2019-03-23T05:25:00.453Z,288.00
2019-03-23T05:26:00.375Z,312.00
2019-03-23T05:27:00.363Z,340.00
2019-03-23T05:28:00.359Z,364.00
2019-03-23T05:29:00.367Z,388.00
2019-03-23T05:30:00.366Z,416.00
2019-03-23T05:31:00.322Z,444.00
2019-03-23T05:32:00.308Z,472.00
2019-03-23T05:33:00.318Z,504.00
2019-03-23T05:34:00.291Z,532.00
2019-03-23T05:35:00.363Z,564.00
2019-03-23T05:36:00.268Z,592.00
2019-03-23T05:37:00.253Z,624.00
2019-03-23T05:38:00.245Z,652.00
2019-03-23T05:39:00.232Z,684.00
2019-03-23T05:40:00.343Z,712.00
2019-03-23T05:41:00.207Z,744.00
2019-03-23T05:42:00.200Z,772.00
2019-03-23T05:43:00.189Z,804.00
2019-03-23T05:44:00.196Z,832.00
2019-03-23T05:45:00.344Z,860.00
2019-03-23T05:46:00.151Z,884.00
2019-03-23T05:47:00.145Z,912.00
2019-03-23T05:48:00.133Z,936.00
2019-03-23T05:49:00.132Z,956.00
2019-03-23T05:50:00.191Z,980.00
2019-03-23T05:51:00.118Z,1012.00
2019-03-23T05:52:01.557Z,1036.00
2019-03-23T05:53:00.074Z,1060.00
2019-03-23T05:54:00.061Z,1080.00
2019-03-23T05:55:00.055Z,1096.00
2019-03-23T05:56:00.069Z,1116.00
2019-03-23T05:57:00.029Z,1140.00
2019-03-23T05:58:00.019Z,1164.00
2019-03-23T05:59:00.009Z,1184.00
2019-03-23T06:00:00.023Z,1192.00
2019-03-23T06:00:59.983Z,1208.00
2019-03-23T06:01:59.979Z,1220.00
2019-03-23T06:02:59.963Z,1236.00
2019-03-23T06:03:59.950Z,1256.00
2019-03-23T06:04:59.965Z,1272.00
2019-03-23T06:05:59.938Z,1288.00
2019-03-23T06:06:59.916Z,1308.00
2019-03-23T06:07:59.908Z,1332.00
2019-03-23T06:08:59.914Z,1352.00
2019-03-23T06:09:59.896Z,1372.00
2019-03-23T06:10:59.874Z,1388.00
2019-03-23T06:11:59.864Z,1404.00
2019-03-23T06:12:59.877Z,1424.00
2019-03-23T06:13:59.843Z,1440.00
2019-03-23T06:14:59.825Z,1456.00
2019-03-23T06:15:59.844Z,1476.00
2019-03-23T06:16:59.831Z,1500.00
2019-03-23T06:17:59.877Z,1520.00
2019-03-23T06:18:59.781Z,1536.00
2019-03-23T06:19:59.774Z,1552.00
2019-03-23T06:20:59.759Z,1572.00
2019-03-23T06:21:59.779Z,1592.00
2019-03-23T06:22:59.735Z,1608.00
2019-03-23T06:23:59.728Z,1624.00
2019-03-23T06:24:59.717Z,1636.00
2019-03-23T06:25:59.736Z,1644.00
2019-03-23T06:26:59.719Z,1648.00
2019-03-23T06:27:59.680Z,1660.00
2019-03-23T06:28:59.668Z,1680.00
2019-03-23T06:29:59.686Z,1700.00
2019-03-23T06:30:59.652Z,1716.00
2019-03-23T06:31:59.639Z,1736.00
2019-03-23T06:32:59.624Z,1756.00
2019-03-23T06:33:59.613Z,1780.00
2019-03-23T06:34:59.631Z,1788.00
2019-03-23T06:35:59.617Z,1808.00
2019-03-23T06:36:59.581Z,1824.00
2019-03-23T06:37:59.568Z,1836.00
2019-03-23T06:39:05.443Z,1860.00
2019-03-23T06:40:00.547Z,1884.00
2019-03-23T06:40:59.560Z,1904.00
2019-03-23T06:41:59.523Z,1932.00
2019-03-23T06:43:00.113Z,1952.00
2019-03-23T06:43:59.500Z,1972.00
2019-03-23T06:44:59.494Z,1984.00
2019-03-23T06:45:59.480Z,2004.00
2019-03-23T06:46:59.498Z,2032.00
2019-03-23T06:47:59.461Z,2052.00
2019-03-23T06:48:59.444Z,2068.00
2019-03-23T06:49:59.437Z,2088.00
2019-03-23T06:50:59.425Z,2112.00
2019-03-23T06:51:59.441Z,2136.00
2019-03-23T06:52:59.403Z,2160.00
2019-03-23T06:53:59.426Z,2184.00
2019-03-23T06:54:59.394Z,2200.00
2019-03-23T06:55:59.367Z,2208.00
2019-03-23T06:56:59.355Z,2224.00
2019-03-23T06:57:59.376Z,2232.00
2019-03-23T06:58:59.332Z,2240.00
2019-03-23T06:59:59.324Z,2256.00
2019-03-23T07:00:59.314Z,2276.00
2019-03-23T07:01:59.302Z,2292.00
2019-03-23T07:02:59.315Z,2304.00
2019-03-23T07:03:59.283Z,2324.00
2019-03-23T07:04:59.264Z,2340.00
2019-03-23T07:05:59.254Z,2356.00
2019-03-23T07:06:59.243Z,2368.00
2019-03-23T07:07:59.257Z,2376.00
2019-03-23T07:08:59.220Z,2412.00
2019-03-23T07:09:59.212Z,2444.00
2019-03-23T07:10:59.729Z,2476.00
2019-03-23T07:11:59.217Z,2508.00
2019-03-23T07:12:59.181Z,2536.00
2019-03-23T07:13:59.165Z,2544.00
2019-03-23T07:14:59.153Z,2544.00
2019-03-23T07:15:59.147Z,2556.00
2019-03-23T07:16:59.156Z,2556.00
2019-03-23T07:17:59.123Z,2564.00
2019-03-23T07:18:59.109Z,2600.00
2019-03-23T07:19:59.122Z,2608.00
2019-03-23T07:20:59.093Z,2632.00
2019-03-23T07:21:59.100Z,2676.00
2019-03-23T07:22:59.063Z,2712.00
2019-03-23T07:23:59.056Z,2740.00
2019-03-23T07:24:59.044Z,2748.00
2019-03-23T07:25:59.060Z,2748.00
2019-03-23T07:26:59.022Z,2768.00
2019-03-23T07:27:59.011Z,2796.00
2019-03-23T07:28:59.001Z,2796.00
2019-03-23T07:29:58.985Z,2808.00
2019-03-23T07:30:59.009Z,2828.00
2019-03-23T07:32:05.594Z,2840.00
2019-03-23T07:32:59.951Z,2836.00
2019-03-23T07:33:58.944Z,2860.00
2019-03-23T07:34:58.930Z,2880.00
2019-03-23T07:35:58.942Z,2860.00
2019-03-23T07:36:58.909Z,2852.00
2019-03-23T07:37:58.898Z,2876.00
2019-03-23T07:38:58.883Z,2956.00
2019-03-23T07:39:58.874Z,3028.00
2019-03-23T07:40:58.883Z,3100.00
2019-03-23T07:41:58.876Z,3168.00
2019-03-23T07:42:58.838Z,3160.00
2019-03-23T07:43:58.824Z,3248.00
2019-03-23T07:44:58.820Z,3308.00
2019-03-23T07:45:58.817Z,3332.00
2019-03-23T07:46:58.819Z,3340.00
2019-03-23T07:47:58.784Z,3356.00
2019-03-23T07:48:58.778Z,3364.00
2019-03-23T07:49:58.759Z,3404.00
2019-03-23T07:50:58.750Z,3368.00
2019-03-23T07:51:58.764Z,3396.00
2019-03-23T07:52:58.725Z,3532.00
2019-03-23T07:53:58.716Z,3560.00
2019-03-23T07:54:58.726Z,3604.00
2019-03-23T07:55:58.695Z,3628.00
2019-03-23T07:56:58.679Z,3648.00
2019-03-23T07:57:58.695Z,3656.00
2019-03-23T07:58:58.657Z,3680.00
2019-03-23T07:59:58.647Z,3684.00
2019-03-23T08:00:58.662Z,3672.00
2019-03-23T08:01:58.622Z,3676.00
2019-03-23T08:02:58.617Z,3684.00
2019-03-23T08:03:58.600Z,3720.00
2019-03-23T08:04:58.590Z,3584.00
2019-03-23T08:05:58.601Z,3628.00
2019-03-23T08:06:58.567Z,3648.00
2019-03-23T08:07:58.562Z,3624.00
2019-03-23T08:08:58.551Z,3700.00
2019-03-23T08:09:58.548Z,3712.00
2019-03-23T08:10:58.547Z,3776.00
2019-03-23T08:11:58.509Z,3800.00
2019-03-23T08:12:58.548Z,3716.00
2019-03-23T08:13:58.493Z,3780.00
2019-03-23T08:14:58.482Z,3836.00
2019-03-23T08:15:58.498Z,3856.00
2019-03-23T08:16:58.472Z,3720.00
2019-03-23T08:17:58.450Z,3784.00
2019-03-23T08:18:58.443Z,3952.00
2019-03-23T08:19:58.448Z,3928.00
2019-03-23T08:20:58.463Z,4004.00
2019-03-23T08:21:58.401Z,4044.00
2019-03-23T08:22:58.498Z,4052.00
2019-03-23T08:23:58.373Z,4056.00
2019-03-23T08:24:58.390Z,4076.00
2019-03-23T08:25:58.355Z,4104.00
2019-03-23T08:26:58.341Z,4108.00
2019-03-23T08:27:58.362Z,4136.00
2019-03-23T08:28:58.318Z,4152.00
2019-03-23T08:29:58.334Z,4184.00
2019-03-23T08:30:58.297Z,4204.00
2019-03-23T08:31:58.287Z,4224.00
2019-03-23T08:32:58.298Z,4240.00
2019-03-23T08:33:58.265Z,4272.00
2019-03-23T08:34:58.251Z,4296.00
2019-03-23T08:35:58.244Z,4340.00
2019-03-23T08:36:58.230Z,4376.00
2019-03-23T08:37:58.247Z,4400.00
2019-03-23T08:38:58.209Z,4428.00
2019-03-23T08:39:58.201Z,4464.00
2019-03-23T08:40:58.188Z,4472.00
2019-03-23T08:41:58.176Z,4496.00
2019-03-23T08:42:58.186Z,4532.00
2019-03-23T08:43:58.152Z,4560.00
2019-03-23T08:44:58.139Z,4580.00
2019-03-23T08:45:58.131Z,4600.00
2019-03-23T08:46:58.121Z,4640.00
2019-03-23T08:47:58.180Z,4688.00
2019-03-23T08:48:58.101Z,4716.00
2019-03-23T08:49:59.661Z,4752.00
2019-03-23T08:50:58.113Z,4776.00
2019-03-23T08:51:58.059Z,4812.00
2019-03-23T08:52:58.052Z,4856.00
2019-03-23T08:53:58.037Z,4876.00
2019-03-23T08:54:58.050Z,4900.00
2019-03-23T08:55:58.020Z,4904.00
2019-03-23T08:56:58.011Z,4940.00
2019-03-23T08:57:57.999Z,4932.00
2019-03-23T08:58:57.982Z,4948.00
2019-03-23T08:59:57.997Z,4996.00
2019-03-23T09:00:58.013Z,5024.00
2019-03-23T09:01:57.947Z,5036.00
2019-03-23T09:02:57.943Z,5052.00
2019-03-23T09:03:57.924Z,5072.00
2019-03-23T09:04:57.938Z,5088.00
2019-03-23T09:05:57.902Z,5116.00
2019-03-23T09:06:57.897Z,5132.00
2019-03-23T09:07:57.881Z,5140.00
2019-03-23T09:08:57.891Z,5152.00
2019-03-23T09:09:59.340Z,5180.00
2019-03-23T09:10:57.846Z,5176.00
2019-03-23T09:11:57.850Z,5184.00
2019-03-23T09:12:57.827Z,5200.00
2019-03-23T09:13:57.840Z,5212.00
2019-03-23T09:14:57.798Z,5236.00
2019-03-23T09:15:57.791Z,5260.00
2019-03-23T09:16:57.776Z,5280.00
2019-03-23T09:17:57.769Z,5292.00
2019-03-23T09:18:57.768Z,5284.00
2019-03-23T09:19:57.753Z,5264.00
2019-03-23T09:20:57.730Z,5268.00
2019-03-23T09:21:57.752Z,5284.00
2019-03-23T09:22:57.712Z,5312.00
2019-03-23T09:23:57.708Z,5296.00
2019-03-23T09:24:57.690Z,5364.00
2019-03-23T09:25:57.678Z,5376.00
2019-03-23T09:26:57.687Z,5412.00
2019-03-23T09:27:57.673Z,5392.00
2019-03-23T09:28:57.645Z,5392.00
2019-03-23T09:29:57.633Z,5424.00
2019-03-23T09:30:57.635Z,5464.00
2019-03-23T09:31:57.634Z,5472.00
2019-03-23T09:32:57.602Z,5476.00
2019-03-23T09:33:57.587Z,5492.00
2019-03-23T09:34:57.595Z,5488.00
2019-03-23T09:35:57.567Z,5520.00
2019-03-23T09:36:57.578Z,5508.00
2019-03-23T09:37:57.541Z,5536.00
2019-03-23T09:38:57.532Z,5552.00
2019-03-23T09:39:58.750Z,5556.00
2019-03-23T09:40:57.508Z,5556.00
2019-03-23T09:41:57.515Z,5572.00
2019-03-23T09:42:57.486Z,5584.00
2019-03-23T09:43:57.471Z,5564.00
2019-03-23T09:44:57.465Z,5596.00
2019-03-23T09:45:57.448Z,5636.00
2019-03-23T09:46:57.479Z,5664.00
2019-03-23T09:47:57.431Z,5680.00
2019-03-23T09:48:57.415Z,5660.00
2019-03-23T09:49:57.404Z,5652.00
2019-03-23T09:50:57.397Z,5696.00
2019-03-23T09:51:57.410Z,5732.00
2019-03-23T09:52:57.392Z,5744.00
2019-03-23T09:53:57.362Z,5768.00
2019-03-23T09:54:57.353Z,5748.00
2019-03-23T09:55:57.340Z,5768.00
2019-03-23T09:56:59.515Z,5752.00
2019-03-23T09:57:57.342Z,5764.00
2019-03-23T09:58:57.311Z,5748.00
2019-03-23T09:59:57.291Z,5744.00
2019-03-23T10:00:57.284Z,5688.00
2019-03-23T10:01:57.275Z,5720.00
2019-03-23T10:02:57.279Z,5748.00
2019-03-23T10:03:57.246Z,5792.00
2019-03-23T10:04:57.235Z,5800.00
2019-03-23T10:05:57.226Z,5788.00
2019-03-23T10:06:57.213Z,5800.00
2019-03-23T10:07:57.230Z,5808.00
2019-03-23T10:08:57.233Z,5820.00
2019-03-23T10:09:57.184Z,5844.00
2019-03-23T10:10:57.172Z,5852.00
2019-03-23T10:11:59.131Z,5844.00
2019-03-23T10:12:57.147Z,5844.00
2019-03-23T10:13:57.160Z,5808.00
2019-03-23T10:14:57.122Z,5800.00
2019-03-23T10:15:57.117Z,5888.00
2019-03-23T10:16:57.105Z,5908.00
2019-03-23T10:17:57.115Z,5924.00
2019-03-23T10:18:57.080Z,5936.00
2019-03-23T10:19:57.072Z,5920.00
2019-03-23T10:20:57.059Z,5888.00
2019-03-23T10:21:57.046Z,5756.00
2019-03-23T10:22:57.053Z,5700.00
2019-03-23T10:23:57.029Z,5756.00
2019-03-23T10:24:57.007Z,5892.00
2019-03-23T10:25:56.997Z,5756.00
2019-03-23T10:26:56.993Z,5740.00
2019-03-23T10:27:56.995Z,5932.00
2019-03-23T10:28:56.966Z,5988.00
2019-03-23T10:29:56.979Z,5940.00
2019-03-23T10:30:56.962Z,5972.00
2019-03-23T10:31:56.934Z,5908.00
2019-03-23T10:32:56.937Z,5984.00
2019-03-23T10:33:56.928Z,6000.00
2019-03-23T10:34:56.903Z,6044.00
2019-03-23T10:35:56.884Z,6072.00
2019-03-23T10:36:56.887Z,6032.00
2019-03-23T10:37:56.888Z,6008.00
2019-03-23T10:38:56.854Z,6072.00
2019-03-23T10:39:56.874Z,6092.00
2019-03-23T10:40:56.832Z,6028.00
2019-03-23T10:41:56.849Z,6028.00
2019-03-23T10:42:56.806Z,6016.00
2019-03-23T10:43:56.799Z,5960.00
2019-03-23T10:44:56.786Z,6152.00
2019-03-23T10:45:56.772Z,6132.00
2019-03-23T10:46:56.784Z,6164.00
2019-03-23T10:48:56.744Z,6016.00
2019-03-23T10:49:56.733Z,6040.00
2019-03-23T10:50:56.742Z,6124.00
2019-03-23T10:51:56.705Z,6000.00
2019-03-23T10:52:56.697Z,6104.00
2019-03-23T10:53:56.689Z,6128.00
2019-03-23T10:54:56.676Z,6128.00
2019-03-23T10:55:56.690Z,6028.00
2019-03-23T10:56:56.648Z,6028.00
2019-03-23T10:57:56.639Z,6292.00
2019-03-23T10:58:56.658Z,6320.00
2019-03-23T10:59:56.616Z,6320.00
2019-03-23T11:00:56.606Z,6188.00
2019-03-23T11:01:56.595Z,6148.00
2019-03-23T11:02:56.586Z,6220.00
2019-03-23T11:03:56.600Z,6312.00
2019-03-23T11:04:56.567Z,6260.00
2019-03-23T11:05:56.552Z,6156.00
2019-03-23T11:06:56.539Z,6224.00
2019-03-23T11:07:56.530Z,6104.00
2019-03-23T11:08:56.559Z,6324.00
2019-03-23T11:09:56.506Z,6352.00
2019-03-23T11:10:56.497Z,6360.00
2019-03-23T11:11:56.484Z,6488.00
2019-03-23T11:12:56.496Z,6600.00
2019-03-23T11:13:56.460Z,6604.00
2019-03-23T11:14:56.453Z,6644.00
2019-03-23T11:15:56.440Z,6692.00
2019-03-23T11:16:56.426Z,6484.00
2019-03-23T11:17:56.450Z,6428.00
2019-03-23T11:18:56.401Z,6576.00
2019-03-23T11:19:58.442Z,6992.00
2019-03-23T11:20:56.382Z,7252.00
2019-03-23T11:21:56.367Z,6888.00
2019-03-23T11:22:56.403Z,6608.00
2019-03-23T11:23:56.347Z,6580.00
2019-03-23T11:24:56.337Z,5692.00
2019-03-23T11:25:56.323Z,5756.00
2019-03-23T11:26:56.315Z,6032.00
2019-03-23T11:27:56.319Z,6756.00
2019-03-23T11:28:56.297Z,6364.00
2019-03-23T11:29:56.278Z,6948.00
2019-03-23T11:30:56.271Z,6680.00
2019-03-23T11:31:56.261Z,6724.00
2019-03-23T11:32:56.271Z,6496.00
2019-03-23T11:33:56.260Z,6420.00
2019-03-23T11:34:56.252Z,6160.00
2019-03-23T11:35:57.979Z,5948.00
2019-03-23T11:36:56.203Z,6068.00
2019-03-23T11:37:56.444Z,5952.00
2019-03-23T11:38:56.200Z,5932.00
2019-03-23T11:39:56.165Z,6000.00
2019-03-23T11:40:56.168Z,6084.00
2019-03-23T11:41:56.148Z,6368.00
2019-03-23T11:42:56.132Z,6648.00
2019-03-23T11:43:56.153Z,6632.00
2019-03-23T11:44:56.183Z,6676.00
2019-03-23T11:45:56.100Z,6584.00
2019-03-23T11:46:56.086Z,6452.00
2019-03-23T11:47:56.105Z,6376.00
2019-03-23T11:48:56.070Z,6288.00
2019-03-23T11:49:56.058Z,6224.00
2019-03-23T11:50:56.067Z,6224.00
2019-03-23T11:51:56.034Z,6084.00
2019-03-23T11:52:56.026Z,5860.00
2019-03-23T11:53:56.012Z,5732.00
2019-03-23T11:54:56.003Z,5572.00
2019-03-23T11:55:56.013Z,5408.00
2019-03-23T11:56:55.981Z,5564.00
2019-03-23T11:57:55.968Z,5524.00
2019-03-23T11:58:55.967Z,5392.00
2019-03-23T11:59:55.948Z,5324.00
2019-03-23T12:00:55.936Z,5208.00
2019-03-23T12:01:55.922Z,5088.00
2019-03-23T12:02:55.931Z,4892.00
2019-03-23T12:03:55.898Z,4816.00
2019-03-23T12:04:55.887Z,4948.00
2019-03-23T12:05:55.876Z,5092.00
2019-03-23T12:06:55.865Z,5352.00
2019-03-23T12:07:55.873Z,5284.00
2019-03-23T12:08:55.867Z,5168.00
2019-03-23T12:09:56.130Z,5128.00
2019-03-23T12:11:02.842Z,5104.00
2019-03-23T12:11:56.828Z,5228.00
2019-03-23T12:12:55.804Z,5404.00
2019-03-23T12:13:55.784Z,5420.00
2019-03-23T12:14:55.775Z,5536.00
2019-03-23T12:15:55.760Z,5584.00
2019-03-23T12:16:55.774Z,5232.00
2019-03-23T12:17:55.741Z,5064.00
2019-03-23T12:18:55.730Z,4968.00
2019-03-23T12:19:55.718Z,4820.00
2019-03-23T12:20:55.710Z,4652.00
2019-03-23T12:21:55.710Z,4520.00
2019-03-23T12:22:55.702Z,4508.00
2019-03-23T12:23:55.671Z,4632.00
2019-03-23T12:24:55.662Z,4560.00
2019-03-23T12:25:55.651Z,4424.00
2019-03-23T12:26:55.637Z,4320.00
2019-03-23T12:27:55.642Z,4208.00
2019-03-23T12:28:55.613Z,4168.00
2019-03-23T12:29:55.626Z,4260.00
2019-03-23T12:30:55.597Z,4352.00
2019-03-23T12:31:55.582Z,4308.00
2019-03-23T12:32:55.571Z,4256.00
2019-03-23T12:33:55.554Z,4240.00
2019-03-23T12:34:55.576Z,4212.00